createdAt,value
2023-04-05T00:01:21.338Z,1.90
2023-04-05T00:06:29.033Z,1.80
2023-04-05T00:11:32.847Z,1.71
2023-04-05T00:16:42.019Z,1.63
2023-04-05T00:21:49.390Z,1.58
2023-04-05T00:26:51.221Z,1.53
2023-04-05T00:31:56.555Z,1.51
2023-04-05T00:37:00.565Z,1.47
2023-04-05T00:42:04.567Z,1.41
2023-04-05T00:47:08.716Z,1.36
2023-04-05T00:52:10.655Z,1.32
2023-04-05T00:57:15.100Z,1.29
2023-04-05T01:02:31.826Z,1.29
2023-04-05T01:07:43.242Z,1.26
2023-04-05T01:12:45.095Z,1.26
2023-04-05T01:17:47.047Z,1.26
2023-04-05T01:23:08.124Z,1.23
2023-04-05T01:28:21.838Z,1.16
2023-04-05T01:33:39.728Z,1.08
2023-04-05T01:38:49.338Z,1.05
2023-04-05T01:43:51.088Z,1.05
2023-04-05T01:48:52.784Z,1.01
2023-04-05T01:53:56.759Z,0.99
2023-04-05T01:58:58.428Z,0.94
2023-04-05T02:04:02.406Z,0.90
2023-04-05T02:09:06.856Z,0.82
2023-04-05T02:14:10.852Z,0.73
2023-04-05T02:19:15.971Z,0.64
2023-04-05T02:24:20.380Z,0.61
2023-04-05T02:29:25.029Z,0.51
2023-04-05T02:34:31.756Z,0.43
2023-04-05T02:39:40.795Z,0.37
2023-04-05T02:44:46.638Z,0.35
2023-04-05T02:49:52.275Z,0.36
2023-04-05T02:54:54.356Z,0.30
2023-04-05T03:00:05.108Z,0.25
2023-04-05T03:05:09.277Z,0.16
2023-04-05T03:10:13.821Z,0.04
2023-04-05T03:15:16.464Z,-0.01
2023-04-05T03:20:19.889Z,-0.08
2023-04-05T03:25:25.639Z,-0.22
2023-04-05T03:30:30.138Z,-0.29
2023-04-05T03:35:39.833Z,-0.40
2023-04-05T03:40:46.901Z,-0.47
2023-04-05T03:45:53.700Z,-0.53
2023-04-05T03:50:58.837Z,-0.54
2023-04-05T03:56:00.572Z,-0.62
2023-04-05T04:01:34.712Z,-0.59
2023-04-05T04:06:37.244Z,-0.64
2023-04-05T04:11:42.132Z,-0.66
2023-04-05T04:16:45.007Z,-0.63
2023-04-05T04:22:05.339Z,-0.66
2023-04-05T04:27:29.080Z,-0.69
2023-04-05T04:32:59.854Z,-0.70
2023-04-05T04:38:21.714Z,-0.74
2023-04-05T04:43:44.720Z,-0.77
2023-04-05T04:48:53.084Z,-0.78
2023-04-05T04:54:07.421Z,-0.80
2023-04-05T04:59:09.152Z,-0.80
2023-04-05T05:04:11.191Z,-0.29
2023-04-05T05:09:15.729Z,-0.28
2023-04-05T05:14:32.365Z,-0.31
2023-04-05T05:19:36.507Z,-0.43
2023-04-05T05:24:38.259Z,-0.50
2023-04-05T05:29:45.194Z,-0.51
2023-04-05T05:34:48.650Z,-0.50
2023-04-05T05:39:55.410Z,-0.42
2023-04-05T05:44:59.354Z,-0.30
2023-04-05T05:50:04.118Z,-0.21
2023-04-05T05:55:09.491Z,-0.03
2023-04-05T06:00:14.398Z,0.16
2023-04-05T06:05:16.640Z,0.31
2023-04-05T06:10:24.296Z,0.47
2023-04-05T06:15:26.003Z,0.68
2023-04-05T06:20:32.531Z,0.89
2023-04-05T06:25:34.212Z,1.06
2023-04-05T06:30:35.989Z,1.24
2023-04-05T06:35:40.318Z,1.43
2023-04-05T06:40:44.432Z,1.63
2023-04-05T06:45:46.358Z,1.84
2023-04-05T06:50:48.078Z,2.09
2023-04-05T06:55:56.056Z,2.36
2023-04-05T07:01:01.481Z,2.66
2023-04-05T07:06:04.351Z,2.83
2023-04-05T07:11:06.196Z,2.97
2023-04-05T07:16:10.314Z,3.11
2023-04-05T07:21:14.643Z,3.32
2023-04-05T07:26:18.928Z,3.57
2023-04-05T07:31:22.921Z,3.75
2023-04-05T07:36:24.656Z,3.90
2023-04-05T07:41:35.274Z,4.06
2023-04-05T07:46:45.115Z,4.23
2023-04-05T07:51:48.704Z,4.40
2023-04-05T07:56:57.538Z,4.58
2023-04-05T08:02:05.044Z,4.72
2023-04-05T08:07:14.002Z,4.92
2023-04-05T08:12:17.936Z,5.07
2023-04-05T08:17:20.358Z,5.21
2023-04-05T08:22:22.147Z,5.38
2023-04-05T08:27:28.870Z,5.60
2023-04-05T08:32:33.664Z,5.75
2023-04-05T08:37:36.055Z,5.88
2023-04-05T08:42:46.431Z,5.97
2023-04-05T08:47:49.875Z,6.12
2023-04-05T08:52:52.369Z,6.23
2023-04-05T08:57:59.084Z,6.35
2023-04-05T09:03:03.372Z,6.47
2023-04-05T09:08:08.012Z,6.67
2023-04-05T09:13:13.886Z,6.77
2023-04-05T09:18:26.272Z,6.91
2023-04-05T09:23:29.074Z,7.09
2023-04-05T09:28:42.061Z,7.28
2023-04-05T09:33:46.565Z,7.41
2023-04-05T09:38:48.401Z,7.46
2023-04-05T09:43:53.044Z,7.38
2023-04-05T09:48:54.962Z,7.59
2023-04-05T09:54:05.161Z,7.78
2023-04-05T09:59:10.619Z,7.69
2023-04-05T10:04:12.782Z,7.73
2023-04-05T10:09:15.268Z,7.97
2023-04-05T10:14:17.032Z,8.24
2023-04-05T10:19:31.560Z,8.47
2023-04-05T10:24:50.744Z,8.56
2023-04-05T10:30:05.849Z,8.70
2023-04-05T10:35:17.382Z,8.51
2023-04-05T10:40:22.891Z,8.59
2023-04-05T10:45:27.538Z,8.50
2023-04-05T10:50:34.890Z,8.93
2023-04-05T10:55:36.791Z,9.12
2023-04-05T11:00:38.820Z,9.30
2023-04-05T11:05:45.422Z,9.51
2023-04-05T11:10:52.373Z,9.66
2023-04-05T11:16:10.074Z,10.12
2023-04-05T11:21:11.844Z,10.44
2023-04-05T11:26:13.585Z,10.55
2023-04-05T11:31:19.704Z,10.84
2023-04-05T11:36:38.455Z,11.10
2023-04-05T11:41:42.767Z,11.47
2023-04-05T11:46:47.023Z,12.18
2023-04-05T11:51:49.069Z,12.53
2023-04-05T11:56:53.239Z,13.01
2023-04-05T12:02:08.288Z,12.98
2023-04-05T12:07:20.540Z,13.57
2023-04-05T12:12:24.374Z,12.98
2023-04-05T12:17:39.087Z,13.52
2023-04-05T12:22:44.883Z,14.02
2023-04-05T12:27:46.953Z,13.70
2023-04-05T12:32:52.074Z,13.88
2023-04-05T12:37:53.872Z,13.78
2023-04-05T12:43:08.211Z,13.97
2023-04-05T12:48:13.187Z,14.13
2023-04-05T12:53:21.647Z,15.91
2023-04-05T12:58:36.844Z,16.86
2023-04-05T13:03:41.700Z,17.34
2023-04-05T13:08:45.785Z,16.15
2023-04-05T13:13:50.687Z,15.90
2023-04-05T13:18:57.121Z,14.79
2023-04-05T13:24:01.048Z,15.08
2023-04-05T13:29:05.287Z,16.26
2023-04-05T13:34:12.262Z,16.50
2023-04-05T13:39:13.907Z,18.64
2023-04-05T13:44:20.246Z,20.07
2023-04-05T13:49:26.525Z,20.26
2023-04-05T13:54:31.579Z,20.35
2023-04-05T13:59:38.174Z,20.72
2023-04-05T14:04:42.317Z,20.99
2023-04-05T14:09:44.764Z,19.94
2023-04-05T14:14:46.768Z,22.22
2023-04-05T14:19:51.110Z,19.49
2023-04-05T14:24:57.477Z,22.16
2023-04-05T14:30:01.385Z,23.33
2023-04-05T14:35:03.152Z,23.84
2023-04-05T14:40:07.671Z,24.34
2023-04-05T14:45:10.357Z,24.47
2023-04-05T14:50:14.360Z,24.72
2023-04-05T14:55:18.322Z,25.27
2023-04-05T15:00:22.845Z,25.12
2023-04-05T15:05:24.589Z,24.97
2023-04-05T15:10:28.693Z,25.45
2023-04-05T15:15:32.767Z,25.19
2023-04-05T15:20:35.429Z,25.04
2023-04-05T15:25:39.531Z,25.27
2023-04-05T15:30:45.733Z,24.91
2023-04-05T15:35:49.933Z,24.73
2023-04-05T15:40:57.909Z,24.25
2023-04-05T15:45:59.621Z,23.72
2023-04-05T15:51:01.383Z,23.69
2023-04-05T15:56:05.956Z,22.92
2023-04-05T16:01:10.125Z,22.97
2023-04-05T16:06:14.980Z,22.45
2023-04-05T16:11:16.718Z,21.30
2023-04-05T16:16:29.828Z,19.54
2023-04-05T16:21:36.945Z,17.94
2023-04-05T16:26:45.925Z,17.21
2023-04-05T16:31:47.951Z,16.20
2023-04-05T16:36:49.812Z,15.61
2023-04-05T16:41:51.622Z,14.93
2023-04-05T16:46:56.575Z,14.54
2023-04-05T16:52:03.474Z,13.93
2023-04-05T16:57:09.965Z,13.37
2023-04-05T17:02:11.754Z,13.10
2023-04-05T17:07:16.626Z,12.76
2023-04-05T17:12:20.815Z,12.26
2023-04-05T17:17:29.930Z,11.93
2023-04-05T17:22:34.450Z,11.65
2023-04-05T17:27:38.967Z,11.30
2023-04-05T17:32:42.855Z,10.90
2023-04-05T17:37:47.664Z,10.59
2023-04-05T17:42:52.983Z,10.32
2023-04-05T17:47:54.850Z,10.06
2023-04-05T17:52:58.800Z,9.86
2023-04-05T17:58:00.775Z,9.63
2023-04-05T18:03:08.286Z,10.01
2023-04-05T18:08:10.591Z,9.44
2023-04-05T18:13:16.951Z,9.07
2023-04-05T18:18:18.718Z,8.89
2023-04-05T18:23:27.553Z,8.66
2023-04-05T18:28:29.284Z,8.45
2023-04-05T18:33:31.035Z,8.32
2023-04-05T18:38:35.392Z,8.16
2023-04-05T18:43:39.586Z,8.06
2023-04-05T18:48:41.481Z,7.98
2023-04-05T18:53:46.062Z,7.84
2023-04-05T18:58:53.246Z,7.72
2023-04-05T19:04:01.843Z,7.56
2023-04-05T19:09:06.337Z,7.47
2023-04-05T19:14:10.462Z,7.37
2023-04-05T19:19:12.543Z,7.25
2023-04-05T19:24:16.463Z,7.13
2023-04-05T19:29:18.738Z,7.10
2023-04-05T19:34:23.065Z,7.05
2023-04-05T19:39:25.562Z,6.85
2023-04-05T19:45:00.218Z,6.77
2023-04-05T19:50:02.183Z,6.65
2023-04-05T19:55:27.653Z,6.59
2023-04-05T20:00:41.289Z,6.48
2023-04-05T20:05:45.754Z,6.38
2023-04-05T20:10:53.081Z,6.31
2023-04-05T20:15:55.520Z,6.17
2023-04-05T20:20:57.686Z,6.27
2023-04-05T20:26:04.868Z,6.91
2023-04-05T20:31:12.395Z,6.46
2023-04-05T20:36:21.586Z,6.17
2023-04-05T20:41:23.337Z,5.94
2023-04-05T20:46:27.979Z,5.81
2023-04-05T20:51:32.356Z,5.63
2023-04-05T20:56:34.165Z,5.47
2023-04-05T21:01:38.118Z,5.39
2023-04-05T21:06:42.368Z,5.28
2023-04-05T21:11:46.488Z,5.21
2023-04-05T21:16:48.201Z,5.09
2023-04-05T21:21:52.284Z,5.10
2023-04-05T21:26:58.788Z,5.00
2023-04-05T21:32:03.066Z,4.92
2023-04-05T21:37:09.729Z,4.85
2023-04-05T21:42:14.514Z,4.72
2023-04-05T21:47:18.984Z,4.61
2023-04-05T21:52:20.770Z,4.51
2023-04-05T21:57:24.791Z,4.41
2023-04-05T22:02:26.617Z,4.32
2023-04-05T22:07:28.490Z,4.22
2023-04-05T22:12:32.717Z,4.18
2023-04-05T22:17:37.003Z,4.08
2023-04-05T22:22:41.259Z,4.04
2023-04-05T22:27:47.808Z,4.01
2023-04-05T22:32:52.188Z,3.90
2023-04-05T22:37:56.156Z,3.82
2023-04-05T22:42:57.869Z,3.78
2023-04-05T22:47:59.692Z,3.68
2023-04-05T22:53:06.042Z,3.54
2023-04-05T22:58:10.363Z,3.45
2023-04-05T23:03:16.731Z,3.45
2023-04-05T23:08:18.759Z,3.36
2023-04-05T23:13:25.959Z,3.31
2023-04-05T23:18:30.121Z,3.27
2023-04-05T23:23:36.486Z,3.19
2023-04-05T23:28:38.232Z,3.13
2023-04-05T23:33:42.455Z,3.11
2023-04-05T23:38:44.182Z,3.07
2023-04-05T23:43:46.250Z,3.02
2023-04-05T23:48:52.525Z,2.96
2023-04-05T23:53:54.282Z,2.95
2023-04-05T23:58:58.295Z,2.93
